Time;durP1;ratioP1;P1;durP2;ratioP2;P2;SDS_P1;SDS_P2;PMS_P1;PMS_P2;Temp;Humidity;BMP_temperature;BMP_pressure;BME280_temperature;BME280_humidity;BME280_pressure;Samples;Min_cycle;Max_cycle;Signal;HPM_P1;HPM_P2
2023/07/06 00:00:06;;;;;;;6.65;1.80;;;;;;;14.57;82.61;100715.34;6276251;22;20026;-78
2023/07/06 00:03:15;;;;;;;3.70;1.83;;;;;;;14.56;82.49;100720.72;6276443;22;20027;-78
2023/07/06 00:06:18;;;;;;;6.03;1.92;;;;;;;14.47;82.52;100711.59;6276090;22;20022;-78
2023/07/06 00:09:21;;;;;;;4.10;1.88;;;;;;;14.38;82.29;100722.72;6276216;22;20022;-78
2023/07/06 00:12:25;;;;;;;4.47;1.80;;;;;;;14.35;82.58;100721.13;6276440;22;20026;-79
2023/07/06 00:15:27;;;;;;;5.40;1.92;;;;;;;14.24;82.91;100728.91;6275227;22;20031;-79
2023/07/06 00:18:32;;;;;;;4.75;1.80;;;;;;;14.21;83.17;100726.47;6276123;22;20476;-79
2023/07/06 00:21:34;;;;;;;3.28;1.67;;;;;;;14.13;83.41;100737.44;6276092;22;20062;-79
2023/07/06 00:24:38;;;;;;;;;;;;;;;14.09;83.52;100741.22;6257711;22;20027;-78
2023/07/06 00:27:43;;;;;;;5.00;1.92;;;;;;;14.11;83.47;100734.09;6275717;22;20374;-78
2023/07/06 00:33:52;;;;;;;3.95;1.63;;;;;;;13.95;82.77;100742.09;6256970;22;20049;-78
2023/07/06 00:36:55;;;;;;;5.57;2.55;;;;;;;13.91;83.05;100747.63;6276155;22;20022;-78
2023/07/06 00:39:59;;;;;;;6.07;2.10;;;;;;;13.90;82.99;100740.69;6276005;22;20026;-78
2023/07/06 00:43:02;;;;;;;3.92;1.90;;;;;;;13.91;83.60;100737.13;6275825;22;20095;-79
2023/07/06 00:46:09;;;;;;;;;;;;;;;13.89;83.55;100742.50;6257837;22;20483;-78
2023/07/06 00:49:16;;;;;;;5.65;1.90;;;;;;;13.80;83.31;100739.59;6257374;22;19914;-79
2023/07/06 00:52:22;;;;;;;4.07;1.80;;;;;;;13.79;83.53;100743.16;6275414;22;20471;-79
2023/07/06 00:55:31;;;;;;;6.13;2.20;;;;;;;13.75;83.88;100754.78;6275789;22;20117;-78
2023/07/06 00:58:45;;;;;;;5.43;2.42;;;;;;;13.71;83.90;100743.63;6256868;22;20027;-78
2023/07/06 01:01:48;;;;;;;5.95;1.70;;;;;;;13.64;84.24;100743.16;6275782;22;20027;-78
2023/07/06 01:04:53;;;;;;;4.40;1.85;;;;;;;13.64;83.87;100740.53;6275832;22;20054;-78
2023/07/06 01:08:04;;;;;;;5.55;1.80;;;;;;;13.65;83.27;100744.00;6275845;22;20089;-78
2023/07/06 01:11:09;;;;;;;5.17;2.00;;;;;;;13.62;83.02;100736.31;6275330;22;20054;-78
2023/07/06 01:14:14;;;;;;;6.50;2.10;;;;;;;13.53;83.35;100736.88;6275614;22;20260;-77
2023/07/06 01:17:26;;;;;;;4.78;2.03;;;;;;;13.45;83.35;100740.81;6275082;22;20069;-77
2023/07/06 01:20:39;;;;;;;3.08;1.85;;;;;;;13.35;83.48;100730.97;6257105;22;20068;-77
2023/07/06 01:24:26;;;;;;;5.90;2.20;;;;;;;13.23;83.80;100733.34;6275753;22;20027;-78
2023/07/06 01:27:50;;;;;;;4.80;1.95;;;;;;;13.14;83.81;100731.28;6256787;22;20026;-78
2023/07/06 01:31:16;;;;;;;4.72;1.80;;;;;;;13.10;83.47;100735.03;6275677;22;20038;-77
2023/07/06 01:34:29;;;;;;;8.23;2.30;;;;;;;13.03;83.64;100739.78;6256223;22;20019;-77
2023/07/06 01:37:41;;;;;;;3.53;1.73;;;;;;;13.03;83.64;100738.97;6276177;22;20099;-77
2023/07/06 01:40:45;;;;;;;4.32;1.88;;;;;;;12.99;83.48;100737.47;6278239;22;20022;-77
2023/07/06 01:43:48;;;;;;;7.70;2.20;;;;;;;12.97;83.85;100734.91;6258710;22;20027;-77
2023/07/06 01:46:53;;;;;;;6.35;2.17;;;;;;;12.97;83.95;100740.16;6258937;22;20467;-78
2023/07/06 01:49:58;;;;;;;4.30;1.85;;;;;;;12.94;83.91;100744.75;6277538;22;20110;-78
2023/07/06 01:53:01;;;;;;;3.80;2.00;;;;;;;12.86;84.38;100747.84;6258652;22;20026;-78
2023/07/06 01:56:13;;;;;;;8.05;2.38;;;;;;;12.84;84.28;100748.84;6258524;22;20023;-78
2023/07/06 01:59:21;;;;;;;4.90;1.92;;;;;;;12.84;84.06;100751.47;6277374;22;20095;-79
2023/07/06 02:02:26;;;;;;;7.13;1.90;;;;;;;12.85;83.61;100747.91;6277617;22;20045;-78
2023/07/06 02:05:31;;;;;;;5.85;1.95;;;;;;;12.79;83.77;100747.34;6240131;22;20026;-79
2023/07/06 02:08:41;;;;;;;6.40;2.22;;;;;;;12.72;83.39;100745.13;6257901;22;20053;-78
2023/07/06 02:11:45;;;;;;;5.72;2.45;;;;;;;12.65;83.41;100744.66;6275048;22;20049;-78
2023/07/06 02:14:48;;;;;;;7.20;1.85;;;;;;;12.63;83.60;100749.13;6256303;22;20069;-78
2023/07/06 02:17:55;;;;;;;9.40;2.35;;;;;;;12.55;83.67;100749.56;6275211;22;20166;-77
2023/07/06 02:20:58;;;;;;;3.97;1.95;;;;;;;12.54;83.63;100744.44;6255934;22;20050;-77
2023/07/06 02:24:02;;;;;;;3.83;1.80;;;;;;;12.50;83.60;100748.16;6275044;22;20026;-77
2023/07/06 02:27:06;;;;;;;7.50;2.25;;;;;;;12.59;84.12;100749.41;6276322;22;20364;-79
2023/07/06 02:30:09;;;;;;;4.18;2.00;;;;;;;12.53;83.25;100750.59;6258090;22;20049;-78
2023/07/06 02:33:13;;;;;;;4.45;1.80;;;;;;;12.43;83.49;100749.44;6277167;22;20077;-79
2023/07/06 02:36:17;;;;;;;5.57;2.03;;;;;;;12.38;83.96;100746.22;6276583;22;20029;-78
2023/07/06 02:39:24;;;;;;;4.47;2.15;;;;;;;12.38;83.83;100759.31;6277221;22;20357;-78
2023/07/06 02:42:26;;;;;;;5.35;1.95;;;;;;;12.42;84.27;100753.84;6258238;22;20030;-78
2023/07/06 02:45:30;;;;;;;4.22;1.75;;;;;;;12.37;83.29;100758.47;6277123;22;20042;-78
2023/07/06 02:48:33;;;;;;;8.15;1.80;;;;;;;12.29;83.46;100755.47;6276882;22;20086;-78
2023/07/06 02:51:36;;;;;;;5.35;2.30;;;;;;;12.23;83.75;100758.41;6257844;22;20046;-78
2023/07/06 02:54:39;;;;;;;5.30;2.10;;;;;;;12.16;83.82;100760.53;6258286;22;20353;-78
2023/07/06 02:57:43;;;;;;;6.15;1.80;;;;;;;12.25;84.03;100760.03;6276921;22;20101;-78
2023/07/06 03:00:50;;;;;;;6.05;1.95;;;;;;;12.28;83.15;100762.47;6276252;22;20130;-78
2023/07/06 03:03:53;;;;;;;4.63;2.05;;;;;;;12.18;82.70;100756.03;6276896;22;20022;-78
2023/07/06 03:06:57;;;;;;;;;;;;;;;12.07;83.30;100761.03;6258766;22;20048;-78
2023/07/06 03:10:05;;;;;;;2.80;1.80;;;;;;;12.14;83.67;100759.75;6258202;22;19913;-78
2023/07/06 03:13:09;;;;;;;3.65;1.95;;;;;;;11.96;83.48;100764.22;6275769;22;20080;-78
2023/07/06 03:16:12;;;;;;;4.00;1.80;;;;;;;11.92;83.54;100764.47;6275805;22;20022;-78
2023/07/06 03:19:16;;;;;;;3.95;1.92;;;;;;;11.83;83.58;100764.00;6239626;22;20027;-78
2023/07/06 03:22:20;;;;;;;5.65;2.15;;;;;;;11.86;83.76;100760.41;6276450;22;20032;-77
2023/07/06 03:25:26;;;;;;;5.88;2.55;;;;;;;11.94;83.22;100763.47;6257736;22;20085;-78
2023/07/06 03:28:34;;;;;;;3.20;1.60;;;;;;;11.84;83.48;100757.88;6214777;23;20027;-78
2023/07/06 03:31:38;;;;;;;7.45;2.00;;;;;;;11.74;83.69;100769.75;6214474;23;20107;-77
2023/07/06 03:34:45;;;;;;;4.18;2.10;;;;;;;11.72;83.92;100769.00;6215753;23;20027;-79
2023/07/06 03:37:48;;;;;;;5.25;2.00;;;;;;;11.73;83.89;100770.66;6214360;23;20096;-78
2023/07/06 03:40:52;;;;;;;;;;;;;;;11.73;84.06;100769.81;6216203;23;20489;-79
2023/07/06 03:43:58;;;;;;;4.55;2.13;;;;;;;11.85;84.10;100766.59;6215787;23;20257;-80
2023/07/06 03:47:08;;;;;;;7.97;2.30;;;;;;;11.78;84.21;100768.66;6215826;23;20024;-79
2023/07/06 04:02:04;;;;;;;4.70;2.00;;;;;;;11.81;85.07;100773.75;5110121;27;20376;-80
2023/07/06 04:05:08;;;;;;;3.47;1.95;;;;;;;11.77;83.59;100774.84;5110149;28;20046;-74
2023/07/06 04:08:13;;;;;;;3.78;1.90;;;;;;;11.82;83.59;100775.41;5110338;28;20074;-82
2023/07/06 04:11:17;;;;;;;3.80;1.70;;;;;;;11.84;82.84;100784.09;5110324;28;20042;-80
2023/07/06 04:14:26;;;;;;;4.43;2.03;;;;;;;12.00;82.98;100784.13;5110119;28;20043;-81
2023/07/06 04:17:29;;;;;;;4.13;1.98;;;;;;;12.06;81.80;100798.63;5110157;28;20051;-77
2023/07/06 04:20:34;;;;;;;3.47;1.75;;;;;;;12.07;81.91;100788.09;5109711;28;20109;-82
2023/07/06 04:23:37;;;;;;;4.47;2.15;;;;;;;12.04;81.62;100795.28;5110363;28;20084;-87
2023/07/06 04:26:45;;;;;;;7.80;2.08;;;;;;;11.89;83.16;100796.09;5108472;28;20070;-75
2023/07/06 04:29:49;;;;;;;4.72;2.53;;;;;;;11.87;84.69;100806.66;5109631;28;20047;-82
2023/07/06 04:32:55;;;;;;;6.07;2.40;;;;;;;11.91;84.23;100805.56;5109933;28;20105;-82
2023/07/06 04:35:58;;;;;;;6.43;2.83;;;;;;;12.04;83.63;100811.84;5110209;28;20043;-84
2023/07/06 04:52:15;;;;;;;4.75;1.80;;;;;;;11.98;83.41;100824.44;6022966;22;4516753;-80
2023/07/06 04:55:23;;;;;;;5.07;2.30;;;;;;;11.99;83.44;100824.34;6193808;23;20096;-84
2023/07/06 04:58:28;;;;;;;4.63;2.08;;;;;;;11.98;83.39;100829.66;6193892;23;20028;-85
2023/07/06 05:01:31;;;;;;;5.68;2.72;;;;;;;12.07;83.49;100831.81;6193544;23;20048;-83
2023/07/06 05:04:39;;;;;;;2.95;1.90;;;;;;;12.04;83.52;100831.97;6193442;23;20027;-81
2023/07/06 05:07:43;;;;;;;4.13;1.70;;;;;;;12.16;83.32;100831.31;6193709;23;20028;-81
2023/07/06 05:10:51;;;;;;;3.45;1.83;;;;;;;12.07;83.18;100823.94;6193246;23;20028;-84
2023/07/06 05:13:54;;;;;;;4.20;1.83;;;;;;;12.01;84.23;100826.88;6193505;23;20047;-83
2023/07/06 05:17:01;;;;;;;6.18;2.17;;;;;;;12.04;84.41;100824.09;6193401;23;20354;-87
2023/07/06 05:20:14;;;;;;;6.75;2.72;;;;;;;12.08;85.16;100815.97;6192555;23;20027;-85
2023/07/06 05:24:08;;;;;;;7.70;2.40;;;;;;;12.19;85.74;100820.66;6192768;23;20031;-85
2023/07/06 05:27:11;;;;;;;3.67;1.85;;;;;;;12.17;85.47;100822.50;6190932;23;20512;-85
2023/07/06 05:30:16;;;;;;;6.13;1.88;;;;;;;12.26;86.01;100824.63;6193531;23;20056;-85
2023/07/06 05:33:20;;;;;;;7.80;3.00;;;;;;;12.31;86.34;100819.13;6193412;23;20362;-85
2023/07/06 05:36:24;;;;;;;;;;;;;;;12.46;86.20;100828.78;6193945;23;20028;-85
2023/07/06 05:39:28;;;;;;;9.57;2.40;;;;;;;12.59;86.53;100826.31;6193338;23;20042;-86
2023/07/06 05:42:34;;;;;;;4.38;1.98;;;;;;;12.73;86.11;100821.16;6193327;23;20395;-86
2023/07/06 05:45:37;;;;;;;4.72;1.77;;;;;;;12.88;85.26;100826.47;6193117;23;20402;-85
2023/07/06 05:48:48;;;;;;;10.85;1.98;;;;;;;13.01;85.21;100828.28;6193330;23;20351;-85
2023/07/06 05:51:52;;;;;;;5.88;2.10;;;;;;;13.13;84.90;100829.34;6187932;23;20355;-85
2023/07/06 05:54:57;;;;;;;4.47;1.98;;;;;;;13.25;83.89;100831.31;6186191;23;20477;-85
2023/07/06 05:58:03;;;;;;;5.30;1.90;;;;;;;13.35;83.33;100836.88;6186384;23;20028;-85
2023/07/06 06:01:06;;;;;;;;;;;;;;;13.43;83.09;100841.66;6187149;23;20075;-85
2023/07/06 06:16:13;;;;;;;4.35;2.03;;;;;;;13.82;83.95;100858.63;5888003;22;9140443;-85
2023/07/06 06:19:20;;;;;;;4.60;2.05;;;;;;;13.95;83.87;100854.31;6285447;22;20022;-85
2023/07/06 06:22:24;;;;;;;5.82;2.13;;;;;;;14.05;83.91;100850.16;6285118;22;20360;-85
2023/07/06 06:25:30;;;;;;;4.07;2.00;;;;;;;14.17;84.01;100856.47;6282416;22;20026;-85
2023/07/06 06:28:59;;;;;;;3.30;1.40;;;;;;;14.31;84.17;100855.59;6266208;22;20035;-86
2023/07/06 06:32:15;;;;;;;4.57;2.10;;;;;;;14.50;83.59;100860.53;6285038;22;20038;-85
2023/07/06 06:35:31;;;;;;;14.63;2.55;;;;;;;14.59;80.06;100863.47;6248612;22;20301;-86
2023/07/06 06:38:47;;;;;;;3.63;1.88;;;;;;;14.67;79.13;100865.59;6284979;22;20022;-85
2023/07/06 06:42:14;;;;;;;4.57;1.85;;;;;;;14.85;77.77;100866.22;6284823;22;20030;-85
2023/07/06 06:45:32;;;;;;;6.30;1.88;;;;;;;14.94;77.82;100864.78;6265855;22;20022;-86
2023/07/06 06:49:05;;;;;;;4.65;1.77;;;;;;;15.04;76.74;100871.97;6233989;22;20110;-85
2023/07/06 06:53:21;;;;;;;4.85;1.65;;;;;;;15.08;75.53;100865.56;6284804;22;20348;-87
2023/07/06 06:56:13;;;;;;;7.63;2.47;;;;;;;15.16;75.30;100866.88;6284674;22;20341;-86
2023/07/06 06:59:19;;;;;;;6.65;2.17;;;;;;;15.23;74.30;100868.13;6284666;22;20026;-86
2023/07/06 07:02:23;;;;;;;4.32;1.67;;;;;;;15.29;74.23;100876.47;6284727;22;20026;-86
2023/07/06 07:05:30;;;;;;;4.07;1.55;;;;;;;15.33;71.94;100871.84;6249137;22;20090;-86
2023/07/06 07:08:41;;;;;;;5.57;1.77;;;;;;;15.39;71.43;100870.59;6249316;22;20027;-85
2023/07/06 07:11:47;;;;;;;5.28;1.52;;;;;;;15.43;70.79;100870.28;6265818;22;20503;-86
2023/07/06 07:15:20;;;;;;;6.40;1.80;;;;;;;15.42;69.61;100865.97;6283629;22;20459;-86
2023/07/06 07:24:00;;;;;;;5.65;1.40;;;;;;;15.68;67.05;100856.31;6124407;23;20021;-86
2023/07/06 07:28:27;;;;;;;;;;;;;;;;;;;;;
2023/07/06 07:38:14;;;;;;;;;;;;;;;;;;;;;
2023/07/06 07:42:25;;;;;;;4.97;1.20;;;;;;;16.09;59.11;100851.78;6167330;22;20026;-87
2023/07/06 07:46:37;;;;;;;3.30;1.35;;;;;;;16.23;59.66;100857.75;6267980;22;20054;-86
2023/07/06 07:55:40;;;;;;;4.35;1.13;;;;;;;16.47;58.02;100849.06;6146985;22;20341;-86
2023/07/06 08:04:37;;;;;;;4.88;0.95;;;;;;;16.82;56.05;100851.81;6277134;22;20023;-87
2023/07/06 08:13:32;;;;;;;2.42;0.93;;;;;;;16.74;51.89;100849.69;6122263;23;20037;-78
2023/07/06 08:16:37;;;;;;;2.35;0.90;;;;;;;16.99;48.87;100860.28;6215709;23;20023;-79
2023/07/06 08:19:45;;;;;;;4.20;1.27;;;;;;;17.05;50.21;100849.28;6215906;23;20027;-79
2023/07/06 08:22:50;;;;;;;2.85;0.90;;;;;;;17.17;49.21;100853.66;6215879;23;20023;-79
2023/07/06 08:25:56;;;;;;;2.60;0.77;;;;;;;17.29;48.01;100852.69;6215692;23;20026;-77
2023/07/06 08:29:00;;;;;;;3.53;0.80;;;;;;;17.26;47.57;100857.38;6214816;23;20027;-80
2023/07/06 08:32:04;;;;;;;2.58;1.25;;;;;;;17.31;47.35;100856.09;6215490;23;20031;-80
2023/07/06 08:35:09;;;;;;;2.35;0.85;;;;;;;17.44;47.51;100851.53;6215286;23;20394;-78
2023/07/06 08:38:19;;;;;;;3.58;1.08;;;;;;;17.56;47.52;100857.72;6214178;23;20094;-84
2023/07/06 08:41:31;;;;;;;1.55;0.80;;;;;;;17.67;47.04;100856.88;6215424;23;20032;-80
2023/07/06 08:44:39;;;;;;;3.75;0.80;;;;;;;17.77;47.34;100860.56;6215238;23;20051;-75
2023/07/06 08:47:42;;;;;;;2.75;0.65;;;;;;;17.81;46.69;100848.78;6215514;23;20074;-83
2023/07/06 08:51:21;;;;;;;3.13;1.00;;;;;;;17.93;45.25;100854.88;6215529;23;20054;-83
2023/07/06 08:54:25;;;;;;;2.15;0.50;;;;;;;17.98;43.52;100849.25;6215622;23;20082;-83
2023/07/06 08:57:32;;;;;;;3.47;0.70;;;;;;;18.01;42.96;100854.31;6215308;23;20051;-85
2023/07/06 09:00:37;;;;;;;1.95;0.70;;;;;;;18.05;43.83;100850.44;6215536;23;20398;-83
2023/07/06 09:03:56;;;;;;;2.30;0.80;;;;;;;18.20;42.36;100851.91;6215279;23;20108;-84
2023/07/06 09:07:02;;;;;;;3.83;0.70;;;;;;;18.20;43.39;100851.06;6214221;23;20100;-85
2023/07/06 09:10:28;;;;;;;4.10;1.00;;;;;;;18.30;43.69;100842.25;6214378;23;20039;-83
2023/07/06 09:13:44;;;;;;;2.42;0.70;;;;;;;18.31;43.11;100843.97;6228124;23;20074;-83
2023/07/06 09:16:55;;;;;;;2.38;0.90;;;;;;;18.34;42.71;100846.34;6245525;23;20055;-84
2023/07/06 09:19:58;;;;;;;1.92;0.70;;;;;;;18.42;42.45;100852.84;6245544;23;20117;-82
2023/07/06 09:23:07;;;;;;;1.77;0.50;;;;;;;18.64;42.19;100851.97;6245505;23;20047;-85
2023/07/06 09:26:22;;;;;;;2.60;0.70;;;;;;;18.70;41.90;100844.34;6226982;23;20022;-84
2023/07/06 09:29:37;;;;;;;2.28;0.70;;;;;;;18.76;41.96;100835.94;6245331;23;20031;-74
2023/07/06 09:32:42;;;;;;;3.05;0.82;;;;;;;18.90;40.63;100837.44;6245115;23;20460;-74
2023/07/06 09:35:55;;;;;;;1.60;0.50;;;;;;;18.92;40.51;100826.72;6245141;23;20027;-76
2023/07/06 09:39:11;;;;;;;2.15;0.70;;;;;;;19.09;40.78;100839.44;6244760;23;20478;-72
2023/07/06 09:42:19;;;;;;;4.22;1.02;;;;;;;19.12;40.29;100836.53;6226291;23;20438;-74
2023/07/06 09:45:27;;;;;;;2.50;0.75;;;;;;;19.18;40.42;100836.00;6226238;23;20090;-75
2023/07/06 09:48:37;;;;;;;2.53;0.70;;;;;;;19.25;38.41;100826.56;6209401;23;20054;-76
2023/07/06 09:52:09;;;;;;;5.22;1.67;;;;;;;19.28;39.75;100826.31;6226711;23;20046;-75
2023/07/06 09:55:29;;;;;;;3.53;1.40;;;;;;;19.36;39.11;100832.78;6245515;23;20039;-76
2023/07/06 09:58:33;;;;;;;3.47;0.60;;;;;;;19.36;39.09;100830.97;6245086;23;20070;-76
2023/07/06 10:01:57;;;;;;;2.25;0.60;;;;;;;19.43;39.39;100829.50;6245190;23;20123;-77
2023/07/06 10:05:34;;;;;;;2.20;0.60;;;;;;;19.51;39.77;100831.47;6244964;23;20022;-73
2023/07/06 10:08:46;;;;;;;1.55;0.55;;;;;;;19.64;38.76;100821.53;6245004;23;20035;-74
2023/07/06 10:11:56;;;;;;;2.28;0.60;;;;;;;19.73;39.03;100836.66;6244960;23;20085;-75
2023/07/06 10:15:05;;;;;;;2.47;0.65;;;;;;;19.72;38.49;100835.00;6226377;23;20019;-76
2023/07/06 10:18:22;;;;;;;2.70;0.60;;;;;;;19.96;38.71;100831.19;6245019;23;20031;-76
2023/07/06 10:21:40;;;;;;;1.75;0.70;;;;;;;20.01;38.23;100828.97;6245150;23;20098;-77
2023/07/06 10:24:54;;;;;;;3.25;0.80;;;;;;;20.04;38.12;100828.72;6245242;23;20068;-76
2023/07/06 10:28:07;;;;;;;1.67;0.80;;;;;;;20.10;38.38;100827.31;6245434;23;20046;-76
2023/07/06 10:31:20;;;;;;;3.17;0.63;;;;;;;20.01;38.28;100818.38;6245292;23;20081;-76
2023/07/06 10:34:38;;;;;;;1.48;0.60;;;;;;;20.07;38.18;100817.81;6245322;23;20023;-75
2023/07/06 10:37:44;;;;;;;2.33;0.50;;;;;;;20.10;38.83;100817.56;6245176;23;20405;-75
2023/07/06 10:40:50;;;;;;;2.38;0.70;;;;;;;20.21;38.02;100825.41;6245146;23;20030;-75
2023/07/06 10:43:56;;;;;;;2.25;0.70;;;;;;;20.12;38.08;100815.59;6226317;23;20031;-75
2023/07/06 10:47:00;;;;;;;3.08;0.90;;;;;;;20.20;38.55;100814.94;6245083;23;20027;-77
2023/07/06 10:50:30;;;;;;;3.15;0.95;;;;;;;20.55;37.06;100817.13;6226271;23;20353;-76
2023/07/06 10:53:40;;;;;;;3.72;0.90;;;;;;;20.69;36.67;100812.41;6246759;23;20405;-74
2023/07/06 10:57:02;;;;;;;4.65;0.75;;;;;;;21.00;35.63;100815.75;6246574;23;20460;-75
2023/07/06 11:00:28;;;;;;;1.60;0.50;;;;;;;21.04;34.85;100819.81;6246986;23;20094;-74
2023/07/06 11:03:33;;;;;;;1.80;0.60;;;;;;;21.06;34.58;100821.34;6227761;23;20402;-75
2023/07/06 11:06:42;;;;;;;1.48;0.55;;;;;;;21.12;35.24;100822.59;6246453;23;20031;-75
2023/07/06 11:10:09;;;;;;;3.65;1.40;;;;;;;21.25;35.23;100819.63;6246457;23;20069;-75
2023/07/06 11:13:16;;;;;;;7.03;3.95;;;;;;;21.22;33.88;100818.13;6246180;23;20019;-73
2023/07/06 11:16:55;;;;;;;2.58;1.10;;;;;;;21.24;34.90;100817.97;6246299;23;20031;-73
2023/07/06 11:20:01;;;;;;;1.65;0.63;;;;;;;21.25;33.50;100816.97;6228009;23;20077;-82
2023/07/06 11:23:12;;;;;;;1.70;0.63;;;;;;;21.18;34.08;100803.41;6246555;23;20038;-79
2023/07/06 11:26:39;;;;;;;2.60;0.60;;;;;;;21.08;35.10;100811.41;6246618;23;20095;-80
2023/07/06 11:29:44;;;;;;;2.53;0.95;;;;;;;21.06;35.14;100812.53;6246475;23;20090;-82
2023/07/06 11:33:10;;;;;;;1.80;0.65;;;;;;;20.82;33.92;100821.75;6246532;23;20030;-81
2023/07/06 11:36:32;;;;;;;2.00;0.60;;;;;;;20.89;34.88;100804.28;6246498;23;20088;-82
2023/07/06 11:40:06;;;;;;;2.42;0.47;;;;;;;21.18;34.88;100800.75;6246547;23;20082;-83
2023/07/06 11:43:35;;;;;;;2.25;0.73;;;;;;;21.44;34.58;100805.50;6246516;23;20023;-81
2023/07/06 11:47:21;;;;;;;3.25;0.65;;;;;;;21.51;33.25;100809.28;6247027;23;20511;-85
2023/07/06 11:50:36;;;;;;;1.42;0.52;;;;;;;21.57;33.85;100809.53;6246327;23;20445;-82
2023/07/06 11:57:13;;;;;;;2.95;1.00;;;;;;;21.58;34.22;100811.22;6246247;23;20411;-81
2023/07/06 12:03:31;;;;;;;3.35;0.95;;;;;;;21.56;33.84;100799.84;6245997;23;20058;-79
2023/07/06 12:06:35;;;;;;;2.88;0.98;;;;;;;21.73;35.13;100798.28;6245990;23;20086;-75
2023/07/06 12:09:38;;;;;;;1.80;0.63;;;;;;;21.95;34.51;100799.75;6246443;23;20050;-76
2023/07/06 12:12:44;;;;;;;3.00;1.00;;;;;;;21.89;34.36;100797.66;6245904;23;20073;-75
2023/07/06 12:15:51;;;;;;;1.80;0.80;;;;;;;21.78;34.66;100800.50;6246394;23;20434;-75
2023/07/06 12:19:03;;;;;;;4.35;0.90;;;;;;;21.70;35.21;100797.75;6246388;23;20057;-78
2023/07/06 12:22:18;;;;;;;2.47;1.10;;;;;;;21.75;35.60;100792.81;6227780;23;20027;-76
2023/07/06 12:25:27;;;;;;;4.45;1.20;;;;;;;21.80;35.72;100782.56;6246017;23;20023;-75
2023/07/06 12:28:30;;;;;;;2.97;1.00;;;;;;;21.96;35.57;100781.94;6227738;23;20031;-76
2023/07/06 12:31:37;;;;;;;3.05;1.35;;;;;;;22.08;35.01;100774.56;6246343;23;20027;-76
2023/07/06 12:34:46;;;;;;;3.28;0.95;;;;;;;22.20;33.63;100778.75;6244396;23;20102;-75
2023/07/06 12:37:55;;;;;;;2.88;1.10;;;;;;;22.44;33.58;100781.69;6245604;23;20350;-76
2023/07/06 12:41:20;;;;;;;3.08;1.00;;;;;;;22.63;32.46;100778.03;6227674;23;20027;-77
2023/07/06 12:44:27;;;;;;;4.57;1.00;;;;;;;22.65;32.85;100778.69;6246192;23;20038;-76
2023/07/06 12:47:37;;;;;;;2.92;1.10;;;;;;;22.88;32.27;100779.09;6246462;23;20102;-77
2023/07/06 12:50:41;;;;;;;3.85;1.00;;;;;;;22.93;32.95;100774.16;6245910;23;20090;-84
2023/07/06 12:53:44;;;;;;;3.05;1.10;;;;;;;23.36;33.16;100760.97;6246161;23;20023;-75
2023/07/06 12:56:58;;;;;;;2.15;1.10;;;;;;;23.57;31.34;100769.41;6246033;23;20027;-76
2023/07/06 13:00:25;;;;;;;8.27;2.10;;;;;;;23.70;31.27;100758.31;6246253;23;20022;-79
2023/07/06 13:03:52;;;;;;;2.20;0.90;;;;;;;23.80;30.62;100755.53;6245697;23;20358;-80
2023/07/06 13:06:55;;;;;;;7.72;1.52;;;;;;;23.77;30.46;100747.84;6227389;23;20030;-77
2023/07/06 13:09:58;;;;;;;2.80;1.20;;;;;;;23.92;30.87;100751.56;6245842;23;20430;-78
2023/07/06 13:13:07;;;;;;;2.40;1.10;;;;;;;23.92;30.47;100754.25;6245199;23;20023;-77
2023/07/06 13:16:16;;;;;;;3.50;1.23;;;;;;;24.26;31.01;100748.84;6245921;23;20349;-77
2023/07/06 13:19:23;;;;;;;2.05;0.85;;;;;;;24.34;29.57;100735.47;6245794;23;20103;-77
2023/07/06 13:22:30;;;;;;;3.20;1.10;;;;;;;24.48;29.17;100735.88;6245869;23;20026;-75
2023/07/06 13:25:45;;;;;;;3.03;1.00;;;;;;;24.55;29.71;100739.56;6245301;23;20027;-73
2023/07/06 13:28:48;;;;;;;3.67;1.40;;;;;;;23.88;30.28;100734.22;6245521;23;20131;-73
2023/07/06 13:31:52;;;;;;;2.88;1.20;;;;;;;24.03;30.35;100747.78;6245729;23;20046;-71
2023/07/06 13:34:55;;;;;;;2.75;1.20;;;;;;;23.77;29.80;100740.69;6245716;23;20074;-73
2023/07/06 13:38:03;;;;;;;5.55;1.67;;;;;;;24.19;29.96;100731.81;6245692;23;20028;-73
2023/07/06 13:41:14;;;;;;;3.28;1.10;;;;;;;24.62;30.31;100735.22;6245497;23;20139;-72
2023/07/06 13:44:19;;;;;;;2.20;1.10;;;;;;;24.55;29.53;100737.72;6228319;23;20027;-73
2023/07/06 13:47:22;;;;;;;2.55;1.23;;;;;;;24.63;28.83;100736.88;6245645;23;20031;-74
2023/07/06 13:50:26;;;;;;;5.40;1.30;;;;;;;24.98;28.18;100721.50;6244955;23;20027;-79
2023/07/06 13:53:30;;;;;;;3.08;1.20;;;;;;;25.90;27.71;100720.09;6242858;23;20093;-77
2023/07/06 13:56:35;;;;;;;4.30;1.98;;;;;;;26.72;27.55;100718.72;6242871;23;20062;-77
2023/07/06 13:59:44;;;;;;;3.47;1.55;;;;;;;27.12;26.50;100715.66;6225796;23;20168;-77
2023/07/06 14:02:49;;;;;;;3.25;1.42;;;;;;;26.33;26.49;100714.31;6244860;23;20074;-78
2023/07/06 14:05:57;;;;;;;2.40;1.20;;;;;;;26.79;26.53;100708.94;6245086;23;20026;-78
2023/07/06 14:09:01;;;;;;;3.55;1.40;;;;;;;26.63;26.66;100721.47;6245238;23;20054;-79
2023/07/06 14:12:06;;;;;;;3.45;1.33;;;;;;;26.48;26.30;100707.19;6226043;23;20023;-77
2023/07/06 14:15:10;;;;;;;3.88;1.35;;;;;;;26.45;27.18;100726.28;6245254;23;20461;-73
2023/07/06 14:18:20;;;;;;;3.85;1.30;;;;;;;26.66;26.63;100722.97;6245493;23;20031;-76
2023/07/06 14:21:23;;;;;;;3.92;1.77;;;;;;;26.87;25.74;100725.81;6245405;23;20464;-76
2023/07/06 14:24:27;;;;;;;2.88;1.42;;;;;;;27.07;25.21;100717.22;6245339;23;20074;-76
2023/07/06 14:27:30;;;;;;;2.85;1.20;;;;;;;27.68;25.48;100720.59;6248394;23;20467;-76
2023/07/06 14:30:35;;;;;;;3.47;1.38;;;;;;;30.41;22.25;100723.50;6247493;23;20365;-76
2023/07/06 14:33:39;;;;;;;6.75;1.80;;;;;;;32.66;19.32;100702.19;6247366;23;20027;-82
2023/07/06 14:36:53;;;;;;;6.85;1.98;;;;;;;35.02;17.69;100698.72;6211715;23;20095;-82
2023/07/06 14:40:01;;;;;;;3.58;1.15;;;;;;;35.48;16.50;100703.25;6212905;23;20548;-83
2023/07/06 14:43:08;;;;;;;3.10;1.42;;;;;;;36.56;15.17;100697.94;6228783;23;20031;-74
2023/07/06 14:46:19;;;;;;;2.97;1.63;;;;;;;36.93;15.16;100689.25;6230610;23;20092;-77
2023/07/06 14:49:24;;;;;;;4.07;1.90;;;;;;;37.28;14.11;100699.00;6247163;23;20365;-75
2023/07/06 14:52:29;;;;;;;6.53;1.58;;;;;;;37.17;14.67;100703.50;6228772;23;20195;-76
2023/07/06 14:55:33;;;;;;;2.38;1.27;;;;;;;35.14;16.38;100711.25;6247211;23;20085;-77
2023/07/06 14:58:43;;;;;;;3.00;1.33;;;;;;;35.44;15.92;100696.66;6247269;23;20027;-76
2023/07/06 15:01:48;;;;;;;2.90;1.20;;;;;;;36.98;14.97;100700.22;6247227;23;20039;-76
2023/07/06 15:04:54;;;;;;;3.58;1.25;;;;;;;39.57;12.41;100700.16;6246995;23;20023;-76
2023/07/06 15:08:00;;;;;;;4.95;1.45;;;;;;;37.52;14.26;100694.13;6228517;23;20031;-76
2023/07/06 15:11:05;;;;;;;2.92;1.33;;;;;;;37.74;13.81;100694.94;6247022;23;20349;-75
2023/07/06 15:14:09;;;;;;;2.88;1.20;;;;;;;38.17;14.09;100692.41;6246626;23;20452;-76
2023/07/06 15:17:13;;;;;;;3.75;1.27;;;;;;;38.18;13.03;100699.50;6247062;23;20100;-76
2023/07/06 15:20:24;;;;;;;3.63;1.55;;;;;;;36.71;14.04;100694.63;6247171;23;20066;-77
2023/07/06 15:23:27;;;;;;;3.78;1.52;;;;;;;36.41;14.23;100686.78;6246557;23;20138;-76
2023/07/06 15:26:31;;;;;;;5.78;1.25;;;;;;;35.56;14.89;100688.50;6246502;23;20047;-76
2023/07/06 15:29:34;;;;;;;3.30;1.58;;;;;;;31.78;19.21;100688.56;6245671;23;20035;-78
2023/07/06 15:32:38;;;;;;;2.90;1.50;;;;;;;30.91;19.20;100693.41;6246688;23;20054;-77
2023/07/06 15:35:42;;;;;;;2.85;1.38;;;;;;;32.30;18.99;100686.66;6246332;23;20022;-76
2023/07/06 15:38:48;;;;;;;4.55;1.52;;;;;;;33.38;19.36;100678.16;6246569;23;20026;-76
2023/07/06 15:41:54;;;;;;;2.50;1.45;;;;;;;34.87;17.39;100675.56;6228362;23;20023;-77
2023/07/06 15:44:58;;;;;;;3.13;1.20;;;;;;;32.13;18.23;100680.91;6246446;23;20107;-78
2023/07/06 15:48:04;;;;;;;2.90;1.58;;;;;;;30.49;21.05;100681.97;6246677;23;20077;-77
2023/07/06 15:51:08;;;;;;;3.85;1.20;;;;;;;33.42;20.89;100678.53;6246866;23;20063;-76
2023/07/06 15:54:15;;;;;;;2.65;1.25;;;;;;;34.60;17.05;100669.78;6228526;23;20073;-76
2023/07/06 15:57:21;;;;;;;4.22;1.27;;;;;;;38.12;13.90;100660.41;6227984;23;20069;-76
2023/07/06 16:00:25;;;;;;;8.65;2.45;;;;;;;35.92;14.13;100660.06;6246602;23;20350;-77
2023/07/06 16:03:29;;;;;;;4.75;2.50;;;;;;;37.14;15.31;100658.50;6246297;23;20393;-77